createdAt,value
2024-04-06T00:00:59.243Z,146.79
2024-04-06T00:01:59.227Z,144.98
2024-04-06T00:02:59.195Z,146.68
2024-04-06T00:03:59.204Z,146.53
2024-04-06T00:04:59.208Z,145.77
2024-04-06T00:05:59.215Z,147.17
2024-04-06T00:07:03.122Z,146.77
2024-04-06T00:08:06.087Z,145.05
2024-04-06T00:09:00.219Z,146.96
2024-04-06T00:09:59.213Z,147.16
2024-04-06T00:10:59.217Z,147.08
2024-04-06T00:11:59.220Z,147.95
2024-04-06T00:12:59.221Z,150.85
2024-04-06T00:13:59.243Z,147.11
2024-04-06T00:14:59.234Z,146.44
2024-04-06T00:15:59.248Z,145.88
2024-04-06T00:16:59.290Z,146.69
2024-04-06T00:17:59.364Z,144.78
2024-04-06T00:18:59.514Z,146.54
2024-04-06T00:19:59.564Z,143.41
2024-04-06T00:20:59.666Z,146.54
2024-04-06T00:21:59.765Z,146.00
2024-04-06T00:22:59.873Z,143.18
2024-04-06T00:24:00.002Z,143.55
2024-04-06T00:25:00.066Z,143.96
2024-04-06T00:26:00.181Z,144.22
2024-04-06T00:27:00.286Z,145.27
2024-04-06T00:28:00.386Z,145.59
2024-04-06T00:29:00.538Z,144.68
2024-04-06T00:30:00.625Z,143.39
2024-04-06T00:31:00.688Z,140.97
2024-04-06T00:32:00.844Z,141.22
2024-04-06T00:33:00.905Z,142.28
2024-04-06T00:34:01.019Z,144.05
2024-04-06T00:35:01.122Z,142.86
2024-04-06T00:36:01.226Z,141.50
2024-04-06T00:37:01.333Z,141.92
2024-04-06T00:38:01.440Z,142.03
2024-04-06T00:39:01.552Z,140.68
2024-04-06T00:40:01.678Z,143.62
2024-04-06T00:41:01.790Z,141.87
2024-04-06T00:42:01.839Z,141.52
2024-04-06T00:43:01.964Z,142.53
2024-04-06T00:44:03.972Z,141.69
2024-04-06T00:45:02.148Z,140.70
2024-04-06T00:46:02.178Z,142.32
2024-04-06T00:47:02.243Z,140.14
2024-04-06T00:48:02.273Z,141.64
2024-04-06T00:49:02.327Z,139.96
2024-04-06T00:50:02.393Z,140.08
2024-04-06T00:51:02.498Z,140.41
2024-04-06T00:52:02.607Z,141.93
2024-04-06T00:53:02.694Z,139.22
2024-04-06T00:54:02.805Z,140.44
2024-04-06T00:55:02.899Z,141.00
2024-04-06T00:56:03.008Z,139.59
2024-04-06T00:57:03.100Z,140.66
2024-04-06T00:58:03.215Z,140.77
2024-04-06T00:59:03.326Z,139.85
2024-04-06T01:00:03.412Z,138.82
2024-04-06T01:01:03.523Z,140.52
2024-04-06T01:02:05.582Z,141.09
2024-04-06T01:03:03.662Z,139.90
2024-04-06T01:04:03.710Z,139.85
2024-04-06T01:05:03.780Z,139.27
2024-04-06T01:06:03.888Z,139.63
2024-04-06T01:07:03.979Z,137.50
2024-04-06T01:08:04.113Z,138.57
2024-04-06T01:09:04.184Z,140.48
2024-04-06T01:10:04.308Z,138.74
2024-04-06T01:11:04.378Z,138.70
2024-04-06T01:12:04.479Z,140.46
2024-04-06T01:13:04.647Z,140.26
2024-04-06T01:14:04.691Z,139.46
2024-04-06T01:15:04.808Z,136.97
2024-04-06T01:16:04.875Z,137.84
2024-04-06T01:17:04.979Z,138.20
2024-04-06T01:18:05.081Z,137.98
2024-04-06T01:19:05.196Z,137.85
2024-04-06T01:20:05.273Z,137.79
2024-04-06T01:21:05.358Z,136.85
2024-04-06T01:22:05.467Z,137.34
2024-04-06T01:23:05.547Z,137.55
2024-04-06T01:24:05.685Z,136.77
2024-04-06T01:25:05.772Z,137.23
2024-04-06T01:26:05.866Z,138.70
2024-04-06T01:27:05.968Z,138.45
2024-04-06T01:28:06.076Z,137.02
2024-04-06T01:29:06.187Z,135.44
2024-04-06T01:30:06.267Z,137.45
2024-04-06T01:31:06.346Z,137.13
2024-04-06T01:32:06.459Z,137.25
2024-04-06T01:33:06.565Z,135.17
2024-04-06T01:34:06.670Z,137.18
2024-04-06T01:35:06.784Z,136.16
2024-04-06T01:36:06.856Z,135.19
2024-04-06T01:37:06.947Z,135.45
2024-04-06T01:38:07.067Z,135.57
2024-04-06T01:39:07.175Z,136.16
2024-04-06T01:40:07.264Z,134.75
2024-04-06T01:41:07.391Z,135.67
2024-04-06T01:42:07.472Z,134.05
2024-04-06T01:43:07.563Z,135.30
2024-04-06T01:44:07.664Z,134.87
2024-04-06T01:45:07.769Z,133.64
2024-04-06T01:46:07.857Z,136.03
2024-04-06T01:47:07.961Z,133.67
2024-04-06T01:48:08.062Z,133.15
2024-04-06T01:49:08.165Z,134.44
2024-04-06T01:50:08.247Z,134.44
2024-04-06T01:51:08.356Z,132.96
2024-04-06T01:52:08.442Z,134.86
2024-04-06T01:53:08.547Z,134.56
2024-04-06T01:54:08.667Z,136.68
2024-04-06T01:55:08.737Z,134.46
2024-04-06T01:56:08.829Z,133.36
2024-04-06T01:57:08.917Z,134.71
2024-04-06T01:58:08.999Z,133.75
2024-04-06T01:59:09.095Z,133.75
2024-04-06T02:00:09.202Z,134.28
2024-04-06T02:01:09.294Z,133.43
2024-04-06T02:02:09.375Z,134.99
2024-04-06T02:03:09.491Z,133.07
2024-04-06T02:04:09.562Z,131.95
2024-04-06T02:05:09.646Z,132.87
2024-04-06T02:06:09.735Z,131.25
2024-04-06T02:07:09.825Z,132.32
2024-04-06T02:08:09.928Z,133.39
2024-04-06T02:09:10.020Z,132.34
2024-04-06T02:10:10.092Z,134.18
2024-04-06T02:11:10.204Z,131.90
2024-04-06T02:12:10.290Z,131.75
2024-04-06T02:13:10.391Z,132.12
2024-04-06T02:14:10.494Z,131.90
2024-04-06T02:15:10.594Z,132.52
2024-04-06T02:16:10.689Z,132.09
2024-04-06T02:17:10.755Z,132.89
2024-04-06T02:18:10.872Z,131.39
2024-04-06T02:19:10.943Z,131.39
2024-04-06T02:20:11.046Z,131.98
2024-04-06T02:21:11.149Z,131.23
2024-04-06T02:22:11.227Z,131.59
2024-04-06T02:23:11.352Z,130.10
2024-04-06T02:24:11.432Z,129.64
2024-04-06T02:25:11.611Z,131.46
2024-04-06T02:26:11.619Z,131.33
2024-04-06T02:27:11.714Z,131.00
2024-04-06T02:28:11.823Z,129.90
2024-04-06T02:29:11.911Z,132.29
2024-04-06T02:30:12.032Z,131.09
2024-04-06T02:31:12.109Z,129.70
2024-04-06T02:32:12.187Z,131.45
2024-04-06T02:33:12.298Z,131.82
2024-04-06T02:34:12.411Z,128.75
2024-04-06T02:35:12.520Z,130.05
2024-04-06T02:36:12.606Z,128.93
2024-04-06T02:37:12.701Z,127.19
2024-04-06T02:38:12.834Z,130.31
2024-04-06T02:39:12.909Z,130.75
2024-04-06T02:40:13.012Z,128.05
2024-04-06T02:41:13.122Z,131.11
2024-04-06T02:42:13.213Z,128.90
2024-04-06T02:43:14.238Z,130.08
2024-04-06T02:44:13.451Z,130.24
2024-04-06T02:45:13.361Z,128.71
2024-04-06T02:46:13.507Z,128.77
2024-04-06T02:47:13.464Z,130.22
2024-04-06T02:48:13.503Z,128.16
2024-04-06T02:49:13.496Z,128.16
2024-04-06T02:50:13.568Z,129.07
2024-04-06T02:51:13.648Z,128.55
2024-04-06T02:52:13.760Z,128.00
2024-04-06T02:53:13.873Z,127.19
2024-04-06T02:54:13.978Z,128.40
2024-04-06T02:55:14.034Z,127.07
2024-04-06T02:56:14.148Z,129.28
2024-04-06T02:57:14.222Z,127.77
2024-04-06T02:58:14.297Z,128.63
2024-04-06T02:59:14.413Z,126.86
2024-04-06T03:00:14.493Z,126.63
2024-04-06T03:01:14.587Z,128.52
2024-04-06T03:02:14.676Z,127.34
2024-04-06T03:03:14.755Z,125.07
2024-04-06T03:04:24.877Z,126.73
2024-04-06T03:05:14.872Z,126.90
2024-04-06T03:06:14.850Z,127.30
2024-04-06T03:07:14.835Z,127.51
2024-04-06T03:08:14.842Z,128.61
2024-04-06T03:09:14.858Z,127.28
2024-04-06T03:10:14.872Z,127.37
2024-04-06T03:11:14.867Z,125.33
2024-04-06T03:12:14.870Z,127.62
2024-04-06T03:13:14.877Z,125.50
2024-04-06T03:14:14.893Z,127.41
2024-04-06T03:15:14.893Z,127.89
2024-04-06T03:16:14.870Z,126.71
2024-04-06T03:17:14.884Z,127.67
2024-04-06T03:18:14.880Z,126.60
2024-04-06T03:19:25.669Z,125.33
2024-04-06T03:20:14.871Z,125.58
2024-04-06T03:21:14.879Z,125.93
2024-04-06T03:22:14.900Z,126.09
2024-04-06T03:23:14.873Z,126.87
2024-04-06T03:24:19.897Z,127.62
2024-04-06T03:25:14.876Z,125.46
2024-04-06T03:26:14.912Z,125.86
2024-04-06T03:27:14.873Z,126.15
2024-04-06T03:28:14.874Z,126.03
2024-04-06T03:29:14.885Z,125.77
2024-04-06T03:30:14.886Z,123.96
2024-04-06T03:31:14.908Z,124.35
2024-04-06T03:32:14.904Z,126.67
2024-04-06T03:33:15.002Z,125.95
2024-04-06T03:34:15.074Z,125.92
2024-04-06T03:35:15.135Z,124.13
2024-04-06T03:36:15.242Z,125.95
2024-04-06T03:37:15.328Z,124.68
2024-04-06T03:38:15.400Z,125.45
2024-04-06T03:39:15.470Z,124.81
2024-04-06T03:40:15.545Z,121.63
2024-04-06T03:41:15.658Z,121.28
2024-04-06T03:42:15.738Z,122.61
2024-04-06T03:43:15.812Z,123.46
2024-04-06T03:44:15.981Z,121.55
2024-04-06T03:45:15.995Z,124.20
2024-04-06T03:46:16.146Z,122.62
2024-04-06T03:47:16.212Z,124.01
2024-04-06T03:48:16.346Z,121.64
2024-04-06T03:49:16.465Z,123.24
2024-04-06T03:50:16.531Z,120.10
2024-04-06T03:51:16.620Z,122.12
2024-04-06T03:52:16.728Z,121.21
2024-04-06T03:53:16.834Z,122.34
2024-04-06T03:54:16.945Z,121.11
2024-04-06T03:55:17.050Z,120.55
2024-04-06T03:56:17.135Z,121.76
2024-04-06T03:57:17.243Z,123.27
2024-04-06T03:58:17.359Z,121.21
2024-04-06T03:59:17.491Z,122.95
2024-04-06T04:00:17.581Z,120.80
2024-04-06T04:01:17.700Z,119.84
2024-04-06T04:02:17.816Z,122.68
2024-04-06T04:03:17.932Z,122.31
2024-04-06T04:04:18.039Z,120.93
2024-04-06T04:05:18.149Z,119.46
2024-04-06T04:06:18.252Z,120.93
2024-04-06T04:07:18.351Z,123.18
2024-04-06T04:08:18.437Z,120.64
2024-04-06T04:09:23.566Z,123.17
2024-04-06T04:10:18.552Z,121.25
2024-04-06T04:11:18.536Z,121.96
2024-04-06T04:12:18.552Z,121.39
2024-04-06T04:13:18.547Z,121.03
2024-04-06T04:14:18.578Z,120.39
2024-04-06T04:15:18.566Z,121.71
2024-04-06T04:16:18.565Z,120.42
2024-04-06T04:17:18.666Z,121.71
2024-04-06T04:18:18.746Z,118.39
2024-04-06T04:19:18.908Z,120.57
2024-04-06T04:20:18.965Z,118.23
2024-04-06T04:21:19.052Z,119.25
2024-04-06T04:22:19.160Z,118.75
2024-04-06T04:23:19.246Z,119.92
2024-04-06T04:24:19.408Z,119.39
2024-04-06T04:25:19.468Z,117.71
2024-04-06T04:26:19.562Z,117.79
2024-04-06T04:27:19.666Z,116.86
2024-04-06T04:28:26.912Z,50.00
2024-04-06T04:29:26.888Z,50.00
2024-04-06T04:30:26.916Z,50.00
2024-04-06T04:31:26.906Z,50.00
2024-04-06T04:32:26.907Z,50.00
2024-04-06T04:33:26.915Z,50.03
2024-04-06T04:34:27.002Z,50.00
2024-04-06T04:35:27.076Z,52.11
2024-04-06T04:36:27.202Z,51.85
2024-04-06T04:37:27.276Z,50.41
2024-04-06T04:38:27.369Z,51.60
2024-04-06T04:39:27.458Z,52.38
2024-04-06T04:40:27.537Z,52.57
2024-04-06T04:41:27.680Z,52.50
2024-04-06T04:42:27.731Z,51.01
2024-04-06T04:43:27.828Z,51.08
2024-04-06T04:44:38.267Z,50.65
2024-04-06T04:45:28.924Z,50.70
2024-04-06T04:46:27.900Z,51.04
2024-04-06T04:47:27.928Z,50.04
2024-04-06T04:48:27.900Z,51.66
2024-04-06T04:49:27.910Z,51.48
2024-04-06T04:50:28.017Z,51.11
2024-04-06T04:51:27.921Z,51.82
2024-04-06T04:52:27.936Z,53.46
2024-04-06T04:53:28.071Z,54.07
2024-04-06T04:54:28.149Z,51.15
2024-04-06T04:55:28.220Z,51.49
2024-04-06T04:56:28.298Z,52.89
2024-04-06T04:57:28.360Z,51.28
2024-04-06T04:58:28.479Z,50.18
2024-04-06T04:59:28.577Z,51.25
2024-04-06T05:00:28.678Z,53.22
2024-04-06T05:01:28.722Z,52.86
2024-04-06T05:02:28.864Z,50.00
2024-04-06T05:03:28.887Z,52.17
2024-04-06T05:04:28.996Z,52.57
2024-04-06T05:05:29.097Z,52.64
2024-04-06T05:06:29.159Z,52.74
2024-04-06T05:07:29.255Z,52.63
2024-04-06T05:08:29.380Z,53.49
2024-04-06T05:09:29.425Z,50.91
2024-04-06T05:10:29.521Z,50.99
2024-04-06T05:11:29.602Z,52.33
2024-04-06T05:12:29.699Z,52.24
2024-04-06T05:13:29.785Z,52.06
2024-04-06T05:14:29.955Z,51.88
2024-04-06T05:15:29.965Z,52.27
2024-04-06T05:16:30.033Z,50.14
2024-04-06T05:17:30.285Z,51.93
2024-04-06T05:18:30.226Z,51.68
2024-04-06T05:19:31.013Z,51.62
2024-04-06T05:20:30.376Z,52.09
2024-04-06T05:21:30.340Z,54.33
2024-04-06T05:22:30.346Z,52.61
2024-04-06T05:23:30.389Z,54.15
2024-04-06T05:24:35.425Z,52.76
2024-04-06T05:25:30.406Z,52.85
2024-04-06T05:26:30.435Z,52.98
2024-04-06T05:27:30.433Z,53.00
2024-04-06T05:28:30.445Z,51.88
2024-04-06T05:29:35.519Z,51.58
2024-04-06T05:30:30.436Z,52.82
2024-04-06T05:31:30.447Z,52.33
2024-04-06T05:32:30.533Z,53.03
2024-04-06T05:33:30.457Z,53.69
2024-04-06T05:34:30.471Z,49.97
2024-04-06T05:35:30.515Z,55.53
2024-04-06T05:36:30.542Z,53.75
2024-04-06T05:37:30.625Z,52.62
2024-04-06T05:38:30.754Z,53.75
2024-04-06T05:39:30.804Z,53.52
2024-04-06T05:40:30.942Z,52.55
2024-04-06T05:41:30.974Z,51.65
2024-04-06T05:42:31.028Z,52.18
2024-04-06T05:43:31.140Z,50.55
2024-04-06T05:44:31.300Z,54.60
2024-04-06T05:45:31.264Z,51.56
2024-04-06T05:46:31.376Z,51.29
2024-04-06T05:47:31.511Z,50.73
2024-04-06T05:48:31.489Z,51.28
2024-04-06T05:49:36.618Z,50.00
2024-04-06T05:50:31.592Z,50.15
2024-04-06T05:51:31.591Z,50.52
2024-04-06T05:52:31.616Z,51.12
2024-04-06T05:53:31.613Z,51.48
2024-04-06T05:54:31.583Z,52.92
2024-04-06T05:55:31.592Z,50.22
2024-04-06T05:56:31.655Z,53.15
2024-04-06T05:57:31.720Z,52.44
2024-04-06T05:58:35.129Z,51.60
2024-04-06T05:59:31.859Z,51.88
2024-04-06T06:00:31.844Z,52.36
2024-04-06T06:01:31.784Z,52.99
2024-04-06T06:02:31.821Z,49.48
2024-04-06T06:03:31.863Z,54.13
2024-04-06T06:04:31.811Z,53.27
2024-04-06T06:05:31.864Z,54.04
2024-04-06T06:06:31.808Z,53.75
2024-04-06T06:07:31.813Z,53.37
2024-04-06T06:08:31.858Z,52.42
2024-04-06T06:09:31.802Z,52.50
2024-04-06T06:10:31.834Z,51.99
2024-04-06T06:11:31.817Z,53.28
2024-04-06T06:12:31.817Z,50.43
2024-04-06T06:13:31.861Z,51.77
2024-04-06T06:14:31.827Z,51.77
2024-04-06T06:15:31.831Z,51.71
2024-04-06T06:16:31.820Z,53.48
2024-04-06T06:17:31.866Z,54.06
2024-04-06T06:18:31.808Z,53.73
2024-04-06T06:19:31.810Z,53.14
2024-04-06T06:20:31.832Z,51.89
2024-04-06T06:21:31.824Z,52.18
2024-04-06T06:22:31.832Z,53.61
2024-04-06T06:23:31.820Z,53.92
2024-04-06T06:24:31.824Z,51.65
2024-04-06T06:25:31.812Z,51.88
2024-04-06T06:26:31.816Z,51.40
2024-04-06T06:27:31.817Z,53.74
2024-04-06T06:28:31.855Z,52.44
2024-04-06T06:29:31.851Z,50.47
2024-04-06T06:30:31.833Z,51.24
2024-04-06T06:31:34.801Z,52.50
2024-04-06T06:32:31.887Z,51.75
2024-04-06T06:33:31.847Z,54.21
2024-04-06T06:34:31.832Z,51.52
2024-04-06T06:35:31.858Z,53.82
2024-04-06T06:38:31.894Z,54.00
2024-04-06T06:41:31.860Z,54.09
2024-04-06T06:42:31.842Z,54.61
2024-04-06T06:43:31.851Z,54.03
2024-04-06T06:44:31.914Z,54.86
2024-04-06T06:45:31.893Z,55.61
2024-04-06T06:46:31.872Z,53.91
2024-04-06T06:47:31.926Z,54.49
2024-04-06T06:48:31.883Z,53.09
2024-04-06T06:49:31.898Z,51.66
2024-04-06T06:50:31.897Z,53.74
2024-04-06T06:51:31.883Z,51.60
2024-04-06T06:52:31.878Z,52.26
2024-04-06T06:53:31.924Z,52.27
2024-04-06T06:54:31.905Z,51.65
2024-04-06T06:55:31.904Z,52.78
2024-04-06T06:56:31.933Z,51.98
2024-04-06T06:57:31.908Z,52.90
2024-04-06T06:58:31.887Z,52.21
2024-04-06T07:00:31.876Z,52.20
2024-04-06T07:01:31.875Z,52.58
2024-04-06T07:02:31.885Z,52.42
2024-04-06T07:03:31.893Z,53.20
2024-04-06T07:04:31.881Z,52.15
2024-04-06T07:05:31.898Z,53.59
2024-04-06T07:07:31.903Z,51.33
2024-04-06T07:08:31.907Z,51.61
2024-04-06T07:09:31.909Z,50.61
2024-04-06T07:10:31.935Z,51.51
2024-04-06T07:11:31.932Z,51.63
2024-04-06T07:12:31.920Z,52.20
2024-04-06T07:13:31.958Z,50.57
2024-04-06T07:14:31.931Z,51.96
2024-04-06T07:15:31.947Z,52.46
2024-04-06T07:16:31.956Z,53.46
2024-04-06T07:17:31.950Z,52.75
2024-04-06T07:18:31.922Z,53.16
2024-04-06T07:19:31.924Z,53.39
2024-04-06T07:20:31.940Z,53.10
2024-04-06T07:21:31.937Z,53.47
2024-04-06T07:22:31.917Z,52.96
2024-04-06T07:23:31.924Z,53.34
2024-04-06T07:24:31.942Z,53.19
2024-04-06T07:25:31.940Z,50.88
2024-04-06T07:26:31.947Z,50.77
2024-04-06T07:27:31.947Z,51.16
2024-04-06T07:28:31.953Z,54.24
2024-04-06T07:29:31.948Z,51.25
2024-04-06T07:30:32.073Z,52.41
2024-04-06T07:31:31.939Z,50.56
2024-04-06T07:32:31.966Z,50.45
2024-04-06T07:33:31.967Z,50.32
2024-04-06T07:34:31.974Z,54.69
2024-04-06T07:35:31.969Z,54.28
2024-04-06T07:36:31.942Z,54.28
2024-04-06T07:37:31.944Z,52.92
2024-04-06T07:38:31.999Z,54.02
2024-04-06T07:39:32.955Z,54.08
2024-04-06T07:40:31.955Z,54.34
2024-04-06T07:41:31.969Z,54.23
2024-04-06T07:42:31.973Z,52.29
2024-04-06T07:43:31.963Z,55.42
2024-04-06T07:44:31.975Z,52.89
2024-04-06T07:45:31.967Z,53.56
2024-04-06T07:46:31.966Z,50.44
2024-04-06T07:47:32.017Z,54.59
2024-04-06T07:48:31.954Z,53.44
2024-04-06T07:49:31.963Z,53.69
2024-04-06T07:50:31.973Z,54.57
2024-04-06T07:51:31.982Z,51.63
2024-04-06T07:52:31.960Z,50.00
2024-04-06T07:53:31.994Z,52.16
2024-04-06T07:54:31.959Z,54.25
2024-04-06T07:55:31.983Z,52.57
2024-04-06T07:56:31.980Z,52.03
2024-04-06T07:57:32.056Z,52.91
2024-04-06T07:58:32.203Z,52.93
2024-04-06T07:59:32.217Z,54.37
2024-04-06T08:00:32.317Z,50.00
2024-04-06T08:01:32.367Z,51.38
2024-04-06T08:02:32.427Z,53.46
2024-04-06T08:03:32.534Z,51.77
2024-04-06T08:04:32.638Z,53.36
2024-04-06T08:05:32.726Z,53.39
2024-04-06T08:06:32.826Z,54.99
2024-04-06T08:07:32.865Z,52.84
2024-04-06T08:08:32.968Z,52.64
2024-04-06T08:09:33.079Z,52.42
2024-04-06T08:10:33.127Z,51.96
2024-04-06T08:11:33.226Z,55.54
2024-04-06T08:12:33.310Z,53.96
2024-04-06T08:13:33.388Z,52.97
2024-04-06T08:14:33.458Z,52.88
2024-04-06T08:15:33.536Z,54.52
2024-04-06T08:16:33.620Z,52.02
2024-04-06T08:17:33.755Z,52.11
2024-04-06T08:18:33.799Z,52.37
2024-04-06T08:19:33.902Z,52.72
2024-04-06T08:20:33.987Z,52.96
2024-04-06T08:21:34.089Z,53.08
2024-04-06T08:22:34.164Z,51.36
2024-04-06T08:23:34.241Z,52.67
2024-04-06T08:24:34.326Z,51.78
2024-04-06T08:25:34.415Z,53.39
2024-04-06T08:26:34.499Z,53.33
2024-04-06T08:27:34.583Z,53.68
2024-04-06T08:28:34.647Z,50.82
2024-04-06T08:29:34.734Z,52.86
2024-04-06T08:30:34.804Z,52.70
2024-04-06T08:31:34.909Z,51.28
2024-04-06T08:32:34.998Z,53.81
2024-04-06T08:33:35.102Z,52.27
2024-04-06T08:34:35.171Z,51.04
2024-04-06T08:35:35.258Z,52.91
2024-04-06T08:36:35.316Z,50.18
2024-04-06T08:37:35.420Z,52.83
2024-04-06T08:38:35.538Z,51.57
2024-04-06T08:39:35.622Z,51.92
2024-04-06T08:40:35.745Z,52.27
2024-04-06T08:41:35.793Z,52.84
2024-04-06T08:42:35.903Z,52.32
2024-04-06T08:43:36.018Z,51.33
2024-04-06T08:44:36.122Z,53.66
2024-04-06T08:45:36.165Z,51.11
2024-04-06T08:46:36.239Z,52.76
2024-04-06T08:47:36.325Z,53.79
2024-04-06T08:48:36.396Z,53.45
2024-04-06T08:49:36.510Z,51.89
2024-04-06T08:50:36.579Z,50.87
2024-04-06T08:51:36.653Z,52.30
2024-04-06T08:52:36.726Z,51.92
2024-04-06T08:53:36.840Z,50.28
2024-04-06T08:54:36.908Z,52.31
2024-04-06T08:55:37.029Z,50.74
2024-04-06T08:56:37.104Z,51.34
2024-04-06T08:57:37.211Z,50.00
2024-04-06T08:58:44.426Z,50.00
2024-04-06T08:59:44.435Z,50.00
2024-04-06T09:00:44.433Z,50.00
2024-04-06T09:01:44.428Z,50.00
2024-04-06T09:02:44.434Z,50.00
2024-04-06T09:03:44.459Z,52.00
2024-04-06T09:04:44.451Z,51.07
2024-04-06T09:05:44.458Z,50.18
2024-04-06T09:06:44.443Z,50.56
2024-04-06T09:07:44.440Z,51.01
2024-04-06T09:08:44.453Z,52.43
2024-04-06T09:09:44.454Z,52.26
2024-04-06T09:10:44.470Z,52.97
2024-04-06T09:11:44.474Z,50.37
2024-04-06T09:12:44.485Z,51.25
2024-04-06T09:13:44.575Z,50.00
2024-04-06T09:14:44.452Z,50.00
2024-04-06T09:15:44.460Z,52.98
2024-04-06T09:16:44.466Z,52.49
2024-04-06T09:17:44.470Z,50.82
2024-04-06T09:18:44.466Z,52.50
2024-04-06T09:19:44.459Z,50.88
2024-04-06T09:20:44.481Z,51.40
2024-04-06T09:21:44.465Z,50.00
2024-04-06T09:22:44.540Z,53.02
2024-04-06T09:23:44.612Z,52.59
2024-04-06T09:24:44.752Z,50.93
2024-04-06T09:25:44.852Z,53.52
2024-04-06T09:26:44.942Z,54.51
2024-04-06T09:27:45.083Z,51.96
2024-04-06T09:28:45.175Z,52.81
2024-04-06T09:29:45.269Z,52.56
2024-04-06T09:30:45.372Z,52.64
2024-04-06T09:31:45.453Z,53.55
2024-04-06T09:32:45.561Z,51.98
2024-04-06T09:33:46.543Z,53.21
2024-04-06T09:34:45.778Z,51.99
2024-04-06T09:35:46.778Z,52.04
2024-04-06T09:36:45.794Z,52.17
2024-04-06T09:37:45.784Z,52.80
2024-04-06T09:38:45.786Z,52.39
2024-04-06T09:39:45.827Z,53.19
2024-04-06T09:40:45.798Z,53.30
2024-04-06T09:41:45.789Z,51.56
2024-04-06T09:42:45.823Z,54.09
2024-04-06T09:43:45.843Z,53.15
2024-04-06T09:44:45.949Z,50.82
2024-04-06T09:45:46.070Z,54.00
2024-04-06T09:46:46.204Z,52.00
2024-04-06T09:47:46.281Z,52.66
2024-04-06T09:48:46.395Z,52.88
2024-04-06T09:49:46.496Z,52.18
2024-04-06T09:50:46.605Z,51.45
2024-04-06T09:51:46.719Z,53.46
2024-04-06T09:52:46.826Z,50.51
2024-04-06T09:53:46.945Z,51.85
2024-04-06T09:54:47.044Z,52.13
2024-04-06T09:55:47.157Z,53.61
2024-04-06T09:56:47.262Z,52.24
2024-04-06T09:57:47.370Z,51.92
2024-04-06T09:58:47.475Z,50.75
2024-04-06T09:59:47.590Z,53.16
2024-04-06T10:00:47.696Z,52.85
2024-04-06T10:01:47.808Z,51.94
2024-04-06T10:02:47.919Z,52.84
2024-04-06T10:03:48.069Z,53.56
2024-04-06T10:04:48.157Z,51.65
2024-04-06T10:05:48.307Z,53.67
2024-04-06T10:06:48.381Z,53.33
2024-04-06T10:07:48.497Z,51.68
2024-04-06T10:08:48.614Z,52.93
2024-04-06T10:09:48.712Z,52.18
2024-04-06T10:10:48.838Z,52.75
2024-04-06T10:11:48.937Z,50.28
2024-04-06T10:12:49.042Z,51.59
2024-04-06T10:13:49.150Z,53.03
2024-04-06T10:14:49.270Z,51.98
2024-04-06T10:15:49.417Z,52.25
2024-04-06T10:16:49.511Z,53.81
2024-04-06T10:17:49.641Z,52.47
2024-04-06T10:18:49.768Z,52.29
2024-04-06T10:19:49.880Z,52.02
2024-04-06T10:20:49.989Z,53.03
2024-04-06T10:21:50.122Z,52.49
2024-04-06T10:22:50.201Z,51.57
2024-04-06T10:23:50.343Z,52.59
2024-04-06T10:24:50.454Z,52.27
2024-04-06T10:25:50.598Z,50.68
2024-04-06T10:26:50.711Z,52.44
2024-04-06T10:27:50.803Z,51.69
2024-04-06T10:28:50.893Z,51.29
2024-04-06T10:29:50.982Z,52.87
2024-04-06T10:30:51.092Z,52.85
2024-04-06T10:31:51.281Z,52.25
2024-04-06T10:32:51.316Z,51.46
2024-04-06T10:33:51.417Z,52.68
2024-04-06T10:34:51.548Z,55.27
2024-04-06T10:35:51.640Z,54.06
2024-04-06T10:36:51.756Z,51.54
2024-04-06T10:37:51.860Z,54.08
2024-04-06T10:38:51.971Z,52.84
2024-04-06T10:39:52.077Z,52.26
2024-04-06T10:40:52.209Z,52.33
2024-04-06T10:41:52.326Z,50.44
2024-04-06T10:42:52.440Z,53.36
2024-04-06T10:43:52.540Z,51.50
2024-04-06T10:44:52.654Z,51.65
2024-04-06T10:45:52.754Z,50.59
2024-04-06T10:46:52.888Z,50.78
2024-04-06T10:47:52.997Z,52.76
2024-04-06T10:48:53.092Z,52.58
2024-04-06T10:49:53.200Z,51.92
2024-04-06T10:50:53.309Z,53.00
2024-04-06T10:51:53.429Z,53.42
2024-04-06T10:52:53.522Z,53.52
2024-04-06T10:53:53.630Z,53.48
2024-04-06T10:54:53.745Z,53.75
2024-04-06T10:55:53.842Z,51.77
2024-04-06T10:56:53.954Z,50.85
2024-04-06T10:57:54.063Z,51.26
2024-04-06T10:58:54.176Z,53.21
2024-04-06T10:59:54.284Z,50.76
2024-04-06T11:00:54.414Z,52.90
2024-04-06T11:01:54.480Z,52.22
2024-04-06T11:02:54.604Z,50.21
2024-04-06T11:03:54.700Z,52.54
2024-04-06T11:04:54.791Z,51.29
2024-04-06T11:05:54.918Z,52.68
2024-04-06T11:06:55.008Z,53.31
2024-04-06T11:07:55.115Z,52.28
2024-04-06T11:08:55.209Z,50.89
2024-04-06T11:09:55.319Z,50.68
2024-04-06T11:10:55.448Z,51.45
2024-04-06T11:11:55.542Z,52.31
2024-04-06T11:12:55.663Z,54.18
2024-04-06T11:13:55.736Z,53.29
2024-04-06T11:14:55.827Z,51.37
2024-04-06T11:15:55.987Z,54.51
2024-04-06T11:16:56.056Z,53.24
2024-04-06T11:17:56.138Z,52.42
2024-04-06T11:18:56.234Z,53.64
2024-04-06T11:19:56.307Z,51.80
2024-04-06T11:20:56.398Z,53.04
2024-04-06T11:21:56.508Z,53.99
2024-04-06T11:22:56.590Z,51.47
2024-04-06T11:23:56.677Z,52.54
2024-04-06T11:24:56.754Z,53.01
2024-04-06T11:25:56.879Z,52.71
2024-04-06T11:26:56.956Z,51.83
2024-04-06T11:27:57.056Z,51.35
2024-04-06T11:28:57.128Z,52.13
2024-04-06T11:29:57.219Z,52.14
2024-04-06T11:30:57.301Z,52.90
2024-04-06T11:31:57.381Z,51.82
2024-04-06T11:32:57.454Z,50.53
2024-04-06T11:33:57.547Z,53.93
2024-04-06T11:34:57.627Z,52.34
2024-04-06T11:35:57.731Z,50.68
2024-04-06T11:36:57.849Z,51.48
2024-04-06T11:37:57.848Z,52.18
2024-04-06T11:38:57.939Z,52.07
2024-04-06T11:39:58.025Z,50.00
2024-04-06T11:40:58.078Z,53.65
2024-04-06T11:41:58.153Z,53.09
2024-04-06T11:42:58.226Z,50.55
2024-04-06T11:43:58.280Z,52.86
2024-04-06T11:44:58.352Z,53.69
2024-04-06T11:45:58.447Z,52.63
2024-04-06T11:46:58.558Z,51.50
2024-04-06T11:47:58.551Z,52.03
2024-04-06T11:48:58.616Z,52.33
2024-04-06T11:49:58.683Z,51.61
2024-04-06T11:50:58.736Z,51.97
2024-04-06T11:51:58.800Z,50.14
2024-04-06T11:52:58.838Z,51.14
2024-04-06T11:53:58.915Z,51.89
2024-04-06T11:54:58.975Z,53.01
2024-04-06T11:55:59.027Z,50.54
2024-04-06T11:56:59.082Z,51.08
2024-04-06T11:57:59.147Z,50.00
2024-04-06T11:58:59.199Z,52.44
2024-04-06T11:59:59.275Z,52.22
2024-04-06T12:00:59.365Z,52.22
2024-04-06T12:01:59.445Z,51.73
2024-04-06T12:02:59.488Z,50.71
2024-04-06T12:03:59.579Z,51.35
2024-04-06T12:04:59.636Z,51.57
2024-04-06T12:05:59.723Z,50.89
2024-04-06T12:06:59.790Z,53.50
2024-04-06T12:07:59.857Z,53.29
2024-04-06T12:08:59.933Z,51.06
2024-04-06T12:10:00.018Z,52.85
2024-04-06T12:11:00.109Z,50.54
2024-04-06T12:12:00.204Z,52.11
2024-04-06T12:13:00.255Z,52.21
2024-04-06T12:14:00.352Z,50.00
2024-04-06T12:15:00.418Z,50.36
2024-04-06T12:16:00.558Z,52.27
2024-04-06T12:17:00.602Z,51.77
2024-04-06T12:18:00.683Z,53.64
2024-04-06T12:19:00.805Z,51.96
2024-04-06T12:20:00.906Z,51.03
2024-04-06T12:21:00.977Z,54.21
2024-04-06T12:22:01.594Z,51.99
2024-04-06T12:23:01.103Z,51.85
2024-04-06T12:24:02.104Z,51.44
2024-04-06T12:25:01.174Z,50.83
2024-04-06T12:26:01.236Z,50.97
2024-04-06T12:27:01.294Z,52.50
2024-04-06T12:28:01.346Z,51.03
2024-04-06T12:29:01.378Z,51.75
2024-04-06T12:30:01.436Z,51.53
2024-04-06T12:31:01.476Z,52.21
2024-04-06T12:32:01.564Z,50.57
2024-04-06T12:33:01.659Z,51.50
2024-04-06T12:34:01.744Z,51.90
2024-04-06T12:35:01.825Z,51.08
2024-04-06T12:36:01.936Z,51.90
2024-04-06T12:37:02.093Z,51.82
2024-04-06T12:38:02.120Z,53.13
2024-04-06T12:39:02.210Z,51.49
2024-04-06T12:40:02.305Z,51.95
2024-04-06T12:41:02.408Z,50.92
2024-04-06T12:42:02.498Z,50.36
2024-04-06T12:43:02.586Z,50.87
2024-04-06T12:44:02.697Z,51.33
2024-04-06T12:45:02.807Z,50.78
2024-04-06T12:46:02.902Z,52.41
2024-04-06T12:47:02.996Z,52.74
2024-04-06T12:48:03.132Z,52.20
2024-04-06T12:49:03.264Z,52.49
2024-04-06T12:50:03.339Z,51.88
2024-04-06T12:51:05.500Z,51.65
2024-04-06T12:52:03.442Z,53.09